sensor_id;sensor_type;location;lat;lon;timestamp;P1;durP1;ratioP1;P2;durP2;ratioP2
31382;SDS011;18014;49.228;11.102;2023-03-23T00:01:40;5.82;;;2.80;;
31382;SDS011;18014;49.228;11.102;2023-03-23T00:03:41;5.75;;;2.80;;
31382;SDS011;18014;49.228;11.102;2023-03-23T00:05:42;7.43;;;2.90;;
31382;SDS011;18014;49.228;11.102;2023-03-23T00:07:49;6.53;;;2.95;;
31382;SDS011;18014;49.228;11.102;2023-03-23T00:09:52;5.47;;;2.85;;
31382;SDS011;18014;49.228;11.102;2023-03-23T00:11:53;3.63;;;2.90;;
31382;SDS011;18014;49.228;11.102;2023-03-23T00:13:57;4.72;;;2.88;;
31382;SDS011;18014;49.228;11.102;2023-03-23T00:16:02;4.53;;;2.53;;
31382;SDS011;18014;49.228;11.102;2023-03-23T00:18:03;4.00;;;3.13;;
31382;SDS011;18014;49.228;11.102;2023-03-23T00:20:05;3.80;;;2.78;;
31382;SDS011;18014;49.228;11.102;2023-03-23T00:22:06;8.30;;;2.90;;
31382;SDS011;18014;49.228;11.102;2023-03-23T00:24:14;5.45;;;2.72;;
31382;SDS011;18014;49.228;11.102;2023-03-23T00:26:17;4.95;;;2.85;;
31382;SDS011;18014;49.228;11.102;2023-03-23T00:28:18;3.95;;;2.72;;
31382;SDS011;18014;49.228;11.102;2023-03-23T00:30:26;5.32;;;2.58;;
31382;SDS011;18014;49.228;11.102;2023-03-23T00:32:27;4.72;;;2.90;;
31382;SDS011;18014;49.228;11.102;2023-03-23T00:34:28;4.60;;;3.05;;
31382;SDS011;18014;49.228;11.102;2023-03-23T00:36:33;3.22;;;2.78;;
31382;SDS011;18014;49.228;11.102;2023-03-23T00:38:35;3.15;;;2.28;;
31382;SDS011;18014;49.228;11.102;2023-03-23T00:40:37;5.43;;;2.78;;
31382;SDS011;18014;49.228;11.102;2023-03-23T00:42:38;3.80;;;2.40;;
31382;SDS011;18014;49.228;11.102;2023-03-23T00:44:39;4.93;;;2.92;;
31382;SDS011;18014;49.228;11.102;2023-03-23T00:46:40;3.58;;;2.10;;
31382;SDS011;18014;49.228;11.102;2023-03-23T00:48:44;3.03;;;2.72;;
31382;SDS011;18014;49.228;11.102;2023-03-23T00:50:46;3.88;;;2.50;;
31382;SDS011;18014;49.228;11.102;2023-03-23T00:52:47;3.88;;;2.50;;
31382;SDS011;18014;49.228;11.102;2023-03-23T00:54:52;6.43;;;2.60;;
31382;SDS011;18014;49.228;11.102;2023-03-23T00:56:53;3.97;;;2.67;;
31382;SDS011;18014;49.228;11.102;2023-03-23T00:58:55;4.68;;;2.70;;
31382;SDS011;18014;49.228;11.102;2023-03-23T01:00:56;2.97;;;2.53;;
31382;SDS011;18014;49.228;11.102;2023-03-23T01:02:57;4.80;;;2.83;;
31382;SDS011;18014;49.228;11.102;2023-03-23T01:04:57;4.47;;;2.47;;
31382;SDS011;18014;49.228;11.102;2023-03-23T01:06:58;4.25;;;2.40;;
31382;SDS011;18014;49.228;11.102;2023-03-23T01:09:01;4.15;;;2.67;;
31382;SDS011;18014;49.228;11.102;2023-03-23T01:11:06;3.20;;;2.47;;
31382;SDS011;18014;49.228;11.102;2023-03-23T01:13:07;2.92;;;2.35;;
31382;SDS011;18014;49.228;11.102;2023-03-23T01:15:08;2.45;;;2.20;;
31382;SDS011;18014;49.228;11.102;2023-03-23T01:17:12;4.35;;;2.40;;
31382;SDS011;18014;49.228;11.102;2023-03-23T01:19:13;3.50;;;2.53;;
31382;SDS011;18014;49.228;11.102;2023-03-23T01:21:16;3.30;;;2.30;;
31382;SDS011;18014;49.228;11.102;2023-03-23T01:23:19;3.40;;;2.28;;
31382;SDS011;18014;49.228;11.102;2023-03-23T01:25:20;4.65;;;2.20;;
31382;SDS011;18014;49.228;11.102;2023-03-23T01:27:22;2.85;;;2.20;;
31382;SDS011;18014;49.228;11.102;2023-03-23T01:29:23;4.45;;;2.85;;
31382;SDS011;18014;49.228;11.102;2023-03-23T01:31:24;3.30;;;2.38;;
31382;SDS011;18014;49.228;11.102;2023-03-23T01:33:26;4.25;;;2.53;;
31382;SDS011;18014;49.228;11.102;2023-03-23T01:35:27;5.15;;;2.75;;
31382;SDS011;18014;49.228;11.102;2023-03-23T01:37:28;4.80;;;2.20;;
31382;SDS011;18014;49.228;11.102;2023-03-23T01:39:29;3.58;;;2.78;;
31382;SDS011;18014;49.228;11.102;2023-03-23T01:41:31;5.55;;;2.50;;
31382;SDS011;18014;49.228;11.102;2023-03-23T01:43:32;3.80;;;2.58;;
31382;SDS011;18014;49.228;11.102;2023-03-23T01:45:37;4.13;;;2.47;;
31382;SDS011;18014;49.228;11.102;2023-03-23T01:47:38;4.15;;;2.53;;
31382;SDS011;18014;49.228;11.102;2023-03-23T01:49:40;5.80;;;2.85;;
31382;SDS011;18014;49.228;11.102;2023-03-23T01:51:46;4.05;;;2.78;;
31382;SDS011;18014;49.228;11.102;2023-03-23T01:53:51;5.22;;;2.53;;
31382;SDS011;18014;49.228;11.102;2023-03-23T01:55:55;5.97;;;2.42;;
31382;SDS011;18014;49.228;11.102;2023-03-23T01:57:58;3.03;;;2.38;;
31382;SDS011;18014;49.228;11.102;2023-03-23T02:00:02;4.95;;;2.50;;
31382;SDS011;18014;49.228;11.102;2023-03-23T02:02:10;3.28;;;2.25;;
31382;SDS011;18014;49.228;11.102;2023-03-23T02:04:13;2.72;;;2.03;;
31382;SDS011;18014;49.228;11.102;2023-03-23T02:06:16;3.05;;;2.22;;
31382;SDS011;18014;49.228;11.102;2023-03-23T02:08:17;3.85;;;2.30;;
31382;SDS011;18014;49.228;11.102;2023-03-23T02:10:19;3.88;;;2.17;;
31382;SDS011;18014;49.228;11.102;2023-03-23T02:12:20;3.83;;;2.22;;
31382;SDS011;18014;49.228;11.102;2023-03-23T02:14:21;4.03;;;2.33;;
31382;SDS011;18014;49.228;11.102;2023-03-23T02:27:11;4.13;;;2.30;;
31382;SDS011;18014;49.228;11.102;2023-03-23T02:29:32;3.03;;;1.80;;
31382;SDS011;18014;49.228;11.102;2023-03-23T02:34:00;2.58;;;1.70;;
31382;SDS011;18014;49.228;11.102;2023-03-23T02:36:28;4.93;;;2.15;;
31382;SDS011;18014;49.228;11.102;2023-03-23T02:38:51;2.40;;;1.80;;
31382;SDS011;18014;49.228;11.102;2023-03-23T02:41:11;2.38;;;2.08;;
31382;SDS011;18014;49.228;11.102;2023-03-23T02:43:14;2.30;;;1.75;;
31382;SDS011;18014;49.228;11.102;2023-03-23T02:45:20;3.22;;;1.73;;
31382;SDS011;18014;49.228;11.102;2023-03-23T02:47:23;2.65;;;2.15;;
31382;SDS011;18014;49.228;11.102;2023-03-23T02:49:27;4.53;;;1.98;;
31382;SDS011;18014;49.228;11.102;2023-03-23T02:51:29;2.72;;;1.60;;
31382;SDS011;18014;49.228;11.102;2023-03-23T02:53:33;2.35;;;1.90;;
31382;SDS011;18014;49.228;11.102;2023-03-23T02:55:37;2.58;;;1.83;;
31382;SDS011;18014;49.228;11.102;2023-03-23T02:57:42;2.90;;;2.03;;
31382;SDS011;18014;49.228;11.102;2023-03-23T02:59:45;2.65;;;1.90;;
31382;SDS011;18014;49.228;11.102;2023-03-23T03:01:50;6.45;;;1.92;;
31382;SDS011;18014;49.228;11.102;2023-03-23T03:04:00;3.67;;;1.60;;
31382;SDS011;18014;49.228;11.102;2023-03-23T03:10:40;3.00;;;1.75;;
31382;SDS011;18014;49.228;11.102;2023-03-23T03:12:56;2.30;;;1.85;;
31382;SDS011;18014;49.228;11.102;2023-03-23T03:15:17;3.17;;;1.92;;
31382;SDS011;18014;49.228;11.102;2023-03-23T03:17:25;1.70;;;1.60;;
31382;SDS011;18014;49.228;11.102;2023-03-23T03:19:35;4.13;;;1.88;;
31382;SDS011;18014;49.228;11.102;2023-03-23T03:21:44;3.30;;;1.48;;
31382;SDS011;18014;49.228;11.102;2023-03-23T03:23:47;3.50;;;1.63;;
31382;SDS011;18014;49.228;11.102;2023-03-23T03:25:51;3.33;;;2.22;;
31382;SDS011;18014;49.228;11.102;2023-03-23T03:27:54;3.22;;;1.80;;
31382;SDS011;18014;49.228;11.102;2023-03-23T03:29:56;1.80;;;1.70;;
31382;SDS011;18014;49.228;11.102;2023-03-23T03:32:00;3.95;;;1.70;;
31382;SDS011;18014;49.228;11.102;2023-03-23T03:34:05;3.33;;;1.90;;
31382;SDS011;18014;49.228;11.102;2023-03-23T03:38:14;2.22;;;1.70;;
31382;SDS011;18014;49.228;11.102;2023-03-23T03:40:16;2.53;;;1.63;;
31382;SDS011;18014;49.228;11.102;2023-03-23T03:42:18;2.80;;;1.83;;
31382;SDS011;18014;49.228;11.102;2023-03-23T03:44:20;2.63;;;2.00;;
31382;SDS011;18014;49.228;11.102;2023-03-23T03:46:21;3.80;;;1.92;;
31382;SDS011;18014;49.228;11.102;2023-03-23T03:48:26;2.85;;;2.00;;
31382;SDS011;18014;49.228;11.102;2023-03-23T03:50:27;3.03;;;1.90;;
31382;SDS011;18014;49.228;11.102;2023-03-23T03:52:29;3.22;;;1.85;;
31382;SDS011;18014;49.228;11.102;2023-03-23T03:54:30;2.85;;;1.70;;
31382;SDS011;18014;49.228;11.102;2023-03-23T03:56:31;2.00;;;1.63;;
31382;SDS011;18014;49.228;11.102;2023-03-23T03:58:35;2.97;;;1.90;;
31382;SDS011;18014;49.228;11.102;2023-03-23T04:00:36;3.95;;;1.88;;
31382;SDS011;18014;49.228;11.102;2023-03-23T04:02:39;4.15;;;2.10;;
31382;SDS011;18014;49.228;11.102;2023-03-23T04:04:41;3.42;;;1.85;;
31382;SDS011;18014;49.228;11.102;2023-03-23T04:06:43;3.58;;;1.80;;
31382;SDS011;18014;49.228;11.102;2023-03-23T04:08:44;4.25;;;2.03;;
31382;SDS011;18014;49.228;11.102;2023-03-23T04:10:45;1.85;;;1.65;;
31382;SDS011;18014;49.228;11.102;2023-03-23T04:12:48;2.45;;;2.03;;
31382;SDS011;18014;49.228;11.102;2023-03-23T04:14:49;3.08;;;2.30;;
31382;SDS011;18014;49.228;11.102;2023-03-23T04:16:50;4.40;;;2.60;;
31382;SDS011;18014;49.228;11.102;2023-03-23T04:18:56;2.78;;;2.28;;
31382;SDS011;18014;49.228;11.102;2023-03-23T04:20:57;2.15;;;1.88;;
31382;SDS011;18014;49.228;11.102;2023-03-23T04:23:00;4.32;;;1.90;;
31382;SDS011;18014;49.228;11.102;2023-03-23T04:25:02;1.50;;;1.20;;
31382;SDS011;18014;49.228;11.102;2023-03-23T04:27:06;1.70;;;1.60;;
31382;SDS011;18014;49.228;11.102;2023-03-23T04:29:07;2.03;;;1.80;;
31382;SDS011;18014;49.228;11.102;2023-03-23T04:31:08;2.55;;;1.27;;
31382;SDS011;18014;49.228;11.102;2023-03-23T04:33:12;3.88;;;2.00;;
31382;SDS011;18014;49.228;11.102;2023-03-23T04:35:14;3.50;;;1.80;;
31382;SDS011;18014;49.228;11.102;2023-03-23T04:37:16;3.60;;;2.05;;
31382;SDS011;18014;49.228;11.102;2023-03-23T04:39:17;2.65;;;1.98;;
31382;SDS011;18014;49.228;11.102;2023-03-23T04:41:18;3.03;;;1.92;;
31382;SDS011;18014;49.228;11.102;2023-03-23T04:43:20;3.55;;;1.70;;
31382;SDS011;18014;49.228;11.102;2023-03-23T04:45:22;1.67;;;1.58;;
31382;SDS011;18014;49.228;11.102;2023-03-23T04:47:23;1.98;;;1.80;;
31382;SDS011;18014;49.228;11.102;2023-03-23T04:49:29;19.92;;;13.65;;
31382;SDS011;18014;49.228;11.102;2023-03-23T04:51:30;16.17;;;11.32;;
31382;SDS011;18014;49.228;11.102;2023-03-23T04:53:31;10.00;;;6.95;;
31382;SDS011;18014;49.228;11.102;2023-03-23T04:55:34;6.38;;;4.82;;
31382;SDS011;18014;49.228;11.102;2023-03-23T04:59:36;6.35;;;4.20;;
31382;SDS011;18014;49.228;11.102;2023-03-23T05:01:38;6.13;;;2.80;;
31382;SDS011;18014;49.228;11.102;2023-03-23T05:03:40;2.20;;;2.00;;
31382;SDS011;18014;49.228;11.102;2023-03-23T05:05:42;3.00;;;1.70;;
31382;SDS011;18014;49.228;11.102;2023-03-23T05:07:46;2.25;;;1.88;;
31382;SDS011;18014;49.228;11.102;2023-03-23T05:09:48;2.17;;;1.92;;
31382;SDS011;18014;49.228;11.102;2023-03-23T05:11:49;4.75;;;1.90;;
31382;SDS011;18014;49.228;11.102;2023-03-23T05:13:51;3.65;;;2.25;;
31382;SDS011;18014;49.228;11.102;2023-03-23T05:15:52;3.60;;;1.88;;
31382;SDS011;18014;49.228;11.102;2023-03-23T05:17:52;4.63;;;1.98;;
31382;SDS011;18014;49.228;11.102;2023-03-23T05:19:54;3.15;;;2.20;;
31382;SDS011;18014;49.228;11.102;2023-03-23T05:21:56;1.90;;;1.80;;
31382;SDS011;18014;49.228;11.102;2023-03-23T05:24:02;3.92;;;2.00;;
31382;SDS011;18014;49.228;11.102;2023-03-23T05:26:04;3.20;;;1.90;;
31382;SDS011;18014;49.228;11.102;2023-03-23T05:28:07;2.33;;;2.03;;
31382;SDS011;18014;49.228;11.102;2023-03-23T05:30:10;3.20;;;1.90;;
31382;SDS011;18014;49.228;11.102;2023-03-23T05:32:15;4.25;;;1.90;;
31382;SDS011;18014;49.228;11.102;2023-03-23T05:34:17;2.30;;;1.52;;
31382;SDS011;18014;49.228;11.102;2023-03-23T05:36:18;5.28;;;1.80;;
31382;SDS011;18014;49.228;11.102;2023-03-23T05:38:19;1.77;;;1.67;;
31382;SDS011;18014;49.228;11.102;2023-03-23T05:40:22;2.63;;;1.98;;
31382;SDS011;18014;49.228;11.102;2023-03-23T05:42:25;3.00;;;1.90;;
31382;SDS011;18014;49.228;11.102;2023-03-23T05:44:26;3.13;;;1.60;;
31382;SDS011;18014;49.228;11.102;2023-03-23T05:46:27;5.45;;;2.47;;
31382;SDS011;18014;49.228;11.102;2023-03-23T05:48:28;3.38;;;2.15;;
31382;SDS011;18014;49.228;11.102;2023-03-23T05:50:30;2.63;;;2.10;;
31382;SDS011;18014;49.228;11.102;2023-03-23T05:52:30;2.65;;;2.25;;
31382;SDS011;18014;49.228;11.102;2023-03-23T05:54:35;3.92;;;2.55;;
31382;SDS011;18014;49.228;11.102;2023-03-23T05:56:36;2.47;;;2.28;;
31382;SDS011;18014;49.228;11.102;2023-03-23T05:58:38;3.47;;;2.72;;
31382;SDS011;18014;49.228;11.102;2023-03-23T06:00:39;5.78;;;2.80;;
31382;SDS011;18014;49.228;11.102;2023-03-23T06:02:40;3.45;;;2.60;;
31382;SDS011;18014;49.228;11.102;2023-03-23T06:04:45;4.65;;;3.17;;
31382;SDS011;18014;49.228;11.102;2023-03-23T06:06:49;3.78;;;2.83;;
31382;SDS011;18014;49.228;11.102;2023-03-23T06:08:51;5.90;;;2.53;;
31382;SDS011;18014;49.228;11.102;2023-03-23T06:10:53;4.53;;;2.90;;
31382;SDS011;18014;49.228;11.102;2023-03-23T06:12:55;4.73;;;2.93;;
31382;SDS011;18014;49.228;11.102;2023-03-23T06:14:56;7.07;;;2.70;;
31382;SDS011;18014;49.228;11.102;2023-03-23T06:16:57;3.17;;;2.58;;
31382;SDS011;18014;49.228;11.102;2023-03-23T06:18:59;4.10;;;2.75;;
31382;SDS011;18014;49.228;11.102;2023-03-23T06:21:00;4.20;;;3.00;;
31382;SDS011;18014;49.228;11.102;2023-03-23T06:23:01;3.65;;;3.10;;
31382;SDS011;18014;49.228;11.102;2023-03-23T06:25:04;3.90;;;2.67;;
31382;SDS011;18014;49.228;11.102;2023-03-23T06:27:06;3.60;;;2.85;;
31382;SDS011;18014;49.228;11.102;2023-03-23T06:29:08;4.30;;;2.90;;
31382;SDS011;18014;49.228;11.102;2023-03-23T06:31:12;3.63;;;2.90;;
31382;SDS011;18014;49.228;11.102;2023-03-23T06:33:14;4.72;;;3.08;;
31382;SDS011;18014;49.228;11.102;2023-03-23T06:35:17;6.20;;;3.03;;
31382;SDS011;18014;49.228;11.102;2023-03-23T06:37:18;3.80;;;3.03;;
31382;SDS011;18014;49.228;11.102;2023-03-23T06:39:19;6.65;;;3.65;;
31382;SDS011;18014;49.228;11.102;2023-03-23T06:41:20;3.60;;;3.03;;
31382;SDS011;18014;49.228;11.102;2023-03-23T06:43:21;5.10;;;3.15;;
31382;SDS011;18014;49.228;11.102;2023-03-23T06:45:23;7.05;;;3.00;;
31382;SDS011;18014;49.228;11.102;2023-03-23T06:47:24;4.82;;;3.15;;
31382;SDS011;18014;49.228;11.102;2023-03-23T06:49:26;4.22;;;3.10;;
31382;SDS011;18014;49.228;11.102;2023-03-23T06:51:27;3.55;;;2.80;;
31382;SDS011;18014;49.228;11.102;2023-03-23T06:53:28;6.28;;;3.58;;
31382;SDS011;18014;49.228;11.102;2023-03-23T06:55:29;4.28;;;3.08;;
31382;SDS011;18014;49.228;11.102;2023-03-23T06:57:30;5.15;;;2.92;;
31382;SDS011;18014;49.228;11.102;2023-03-23T06:59:31;4.47;;;2.97;;
31382;SDS011;18014;49.228;11.102;2023-03-23T07:01:32;4.03;;;3.00;;
31382;SDS011;18014;49.228;11.102;2023-03-23T07:03:33;5.05;;;3.10;;
31382;SDS011;18014;49.228;11.102;2023-03-23T07:05:34;6.10;;;3.45;;
31382;SDS011;18014;49.228;11.102;2023-03-23T07:07:36;3.10;;;2.60;;
31382;SDS011;18014;49.228;11.102;2023-03-23T07:09:38;4.25;;;2.90;;
31382;SDS011;18014;49.228;11.102;2023-03-23T07:11:38;4.15;;;2.75;;
31382;SDS011;18014;49.228;11.102;2023-03-23T07:13:39;4.82;;;2.72;;
31382;SDS011;18014;49.228;11.102;2023-03-23T07:15:40;5.78;;;3.35;;
31382;SDS011;18014;49.228;11.102;2023-03-23T07:17:41;5.88;;;3.10;;
31382;SDS011;18014;49.228;11.102;2023-03-23T07:19:43;3.20;;;2.47;;
31382;SDS011;18014;49.228;11.102;2023-03-23T07:21:44;5.72;;;3.38;;
31382;SDS011;18014;49.228;11.102;2023-03-23T07:23:45;4.85;;;3.03;;
31382;SDS011;18014;49.228;11.102;2023-03-23T07:25:46;4.93;;;2.90;;
31382;SDS011;18014;49.228;11.102;2023-03-23T07:27:48;4.05;;;3.00;;
31382;SDS011;18014;49.228;11.102;2023-03-23T07:29:49;3.97;;;3.22;;
31382;SDS011;18014;49.228;11.102;2023-03-23T07:31:50;3.83;;;3.05;;
31382;SDS011;18014;49.228;11.102;2023-03-23T07:33:52;5.63;;;2.95;;
31382;SDS011;18014;49.228;11.102;2023-03-23T07:35:53;4.50;;;3.42;;
31382;SDS011;18014;49.228;11.102;2023-03-23T07:37:54;4.40;;;3.15;;
31382;SDS011;18014;49.228;11.102;2023-03-23T07:39:55;4.32;;;3.83;;
31382;SDS011;18014;49.228;11.102;2023-03-23T07:41:57;3.90;;;3.50;;
31382;SDS011;18014;49.228;11.102;2023-03-23T07:43:58;4.65;;;2.97;;
31382;SDS011;18014;49.228;11.102;2023-03-23T07:45:59;3.88;;;3.35;;
31382;SDS011;18014;49.228;11.102;2023-03-23T07:48:00;5.07;;;3.47;;
31382;SDS011;18014;49.228;11.102;2023-03-23T07:50:02;3.78;;;3.28;;
31382;SDS011;18014;49.228;11.102;2023-03-23T07:52:03;5.20;;;3.75;;
31382;SDS011;18014;49.228;11.102;2023-03-23T07:54:04;4.30;;;3.42;;
31382;SDS011;18014;49.228;11.102;2023-03-23T07:56:07;3.90;;;3.42;;
31382;SDS011;18014;49.228;11.102;2023-03-23T07:58:08;5.82;;;3.42;;
31382;SDS011;18014;49.228;11.102;2023-03-23T08:00:09;4.68;;;3.38;;
31382;SDS011;18014;49.228;11.102;2023-03-23T08:02:19;4.72;;;3.05;;
31382;SDS011;18014;49.228;11.102;2023-03-23T08:04:20;4.38;;;3.25;;
31382;SDS011;18014;49.228;11.102;2023-03-23T08:06:21;3.90;;;3.28;;
31382;SDS011;18014;49.228;11.102;2023-03-23T08:08:23;8.98;;;3.45;;
31382;SDS011;18014;49.228;11.102;2023-03-23T08:10:24;4.22;;;3.65;;
31382;SDS011;18014;49.228;11.102;2023-03-23T08:12:26;4.93;;;3.87;;
31382;SDS011;18014;49.228;11.102;2023-03-23T08:14:28;5.30;;;3.75;;
31382;SDS011;18014;49.228;11.102;2023-03-23T08:16:29;6.22;;;3.65;;
31382;SDS011;18014;49.228;11.102;2023-03-23T08:18:30;4.25;;;3.40;;
31382;SDS011;18014;49.228;11.102;2023-03-23T08:20:34;6.35;;;3.42;;
31382;SDS011;18014;49.228;11.102;2023-03-23T08:22:37;6.13;;;3.33;;
31382;SDS011;18014;49.228;11.102;2023-03-23T08:24:39;4.68;;;3.78;;
31382;SDS011;18014;49.228;11.102;2023-03-23T08:26:40;4.15;;;3.25;;
31382;SDS011;18014;49.228;11.102;2023-03-23T08:28:41;3.60;;;3.30;;
31382;SDS011;18014;49.228;11.102;2023-03-23T08:30:43;6.05;;;3.50;;
31382;SDS011;18014;49.228;11.102;2023-03-23T08:32:44;4.93;;;3.08;;
31382;SDS011;18014;49.228;11.102;2023-03-23T08:34:46;5.27;;;3.63;;
31382;SDS011;18014;49.228;11.102;2023-03-23T08:36:48;4.00;;;3.00;;
31382;SDS011;18014;49.228;11.102;2023-03-23T08:38:51;5.07;;;3.38;;
31382;SDS011;18014;49.228;11.102;2023-03-23T08:40:56;4.68;;;3.50;;
31382;SDS011;18014;49.228;11.102;2023-03-23T08:43:02;3.85;;;3.22;;
31382;SDS011;18014;49.228;11.102;2023-03-23T08:45:05;5.28;;;3.30;;
31382;SDS011;18014;49.228;11.102;2023-03-23T08:49:08;3.92;;;3.50;;
31382;SDS011;18014;49.228;11.102;2023-03-23T08:51:09;5.00;;;3.20;;
31382;SDS011;18014;49.228;11.102;2023-03-23T08:53:10;4.20;;;3.20;;
31382;SDS011;18014;49.228;11.102;2023-03-23T08:55:11;7.78;;;2.80;;
31382;SDS011;18014;49.228;11.102;2023-03-23T08:57:13;3.35;;;2.55;;
31382;SDS011;18014;49.228;11.102;2023-03-23T08:59:18;5.15;;;3.65;;
31382;SDS011;18014;49.228;11.102;2023-03-23T09:01:19;3.53;;;2.80;;
31382;SDS011;18014;49.228;11.102;2023-03-23T09:03:20;3.63;;;2.80;;
31382;SDS011;18014;49.228;11.102;2023-03-23T09:05:22;3.20;;;2.72;;
31382;SDS011;18014;49.228;11.102;2023-03-23T09:07:26;5.28;;;3.00;;
31382;SDS011;18014;49.228;11.102;2023-03-23T09:09:27;3.60;;;2.78;;
31382;SDS011;18014;49.228;11.102;2023-03-23T09:11:28;4.28;;;2.95;;
31382;SDS011;18014;49.228;11.102;2023-03-23T09:13:29;3.35;;;2.78;;
31382;SDS011;18014;49.228;11.102;2023-03-23T09:15:31;2.90;;;2.38;;
31382;SDS011;18014;49.228;11.102;2023-03-23T09:17:32;2.80;;;2.40;;
31382;SDS011;18014;49.228;11.102;2023-03-23T09:19:35;2.78;;;2.58;;
31382;SDS011;18014;49.228;11.102;2023-03-23T09:21:36;3.00;;;2.40;;
31382;SDS011;18014;49.228;11.102;2023-03-23T09:23:37;3.17;;;2.58;;
31382;SDS011;18014;49.228;11.102;2023-03-23T09:25:38;5.32;;;2.67;;
31382;SDS011;18014;49.228;11.102;2023-03-23T09:27:40;5.25;;;3.03;;
31382;SDS011;18014;49.228;11.102;2023-03-23T09:29:41;3.35;;;2.30;;
31382;SDS011;18014;49.228;11.102;2023-03-23T09:31:44;3.72;;;2.90;;
31382;SDS011;18014;49.228;11.102;2023-03-23T09:33:46;4.80;;;2.37;;
31382;SDS011;18014;49.228;11.102;2023-03-23T09:35:51;2.92;;;2.53;;
31382;SDS011;18014;49.228;11.102;2023-03-23T09:37:52;2.90;;;2.53;;
31382;SDS011;18014;49.228;11.102;2023-03-23T09:39:54;2.50;;;2.30;;
31382;SDS011;18014;49.228;11.102;2023-03-23T09:48:54;4.40;;;2.67;;
31382;SDS011;18014;49.228;11.102;2023-03-23T09:53:25;2.78;;;2.55;;
31382;SDS011;18014;49.228;11.102;2023-03-23T09:55:35;4.00;;;2.33;;
31382;SDS011;18014;49.228;11.102;2023-03-23T09:57:45;4.40;;;3.05;;
31382;SDS011;18014;49.228;11.102;2023-03-23T10:00:06;3.60;;;2.67;;
31382;SDS011;18014;49.228;11.102;2023-03-23T10:02:16;2.55;;;2.28;;
31382;SDS011;18014;49.228;11.102;2023-03-23T10:06:52;5.45;;;2.35;;
31382;SDS011;18014;49.228;11.102;2023-03-23T10:09:00;6.05;;;2.60;;
31382;SDS011;18014;49.228;11.102;2023-03-23T10:11:19;5.05;;;2.70;;
31382;SDS011;18014;49.228;11.102;2023-03-23T10:13:42;3.45;;;2.30;;
31382;SDS011;18014;49.228;11.102;2023-03-23T10:15:52;2.90;;;2.60;;
31382;SDS011;18014;49.228;11.102;2023-03-23T10:18:00;3.88;;;2.60;;
31382;SDS011;18014;49.228;11.102;2023-03-23T10:22:17;6.10;;;2.90;;
31382;SDS011;18014;49.228;11.102;2023-03-23T10:24:35;3.95;;;2.63;;
31382;SDS011;18014;49.228;11.102;2023-03-23T10:27:00;3.33;;;2.38;;
31382;SDS011;18014;49.228;11.102;2023-03-23T10:29:21;3.65;;;2.60;;
31382;SDS011;18014;49.228;11.102;2023-03-23T10:31:31;2.90;;;2.25;;
31382;SDS011;18014;49.228;11.102;2023-03-23T10:37:56;4.55;;;2.33;;
31382;SDS011;18014;49.228;11.102;2023-03-23T10:40:02;2.30;;;2.10;;
31382;SDS011;18014;49.228;11.102;2023-03-23T10:42:10;2.88;;;2.28;;
31382;SDS011;18014;49.228;11.102;2023-03-23T10:46:27;4.60;;;2.55;;
31382;SDS011;18014;49.228;11.102;2023-03-23T10:48:30;4.03;;;1.85;;
31382;SDS011;18014;49.228;11.102;2023-03-23T10:50:36;8.68;;;2.63;;
31382;SDS011;18014;49.228;11.102;2023-03-23T10:52:39;3.90;;;2.15;;
31382;SDS011;18014;49.228;11.102;2023-03-23T10:57:12;5.40;;;2.70;;
31382;SDS011;18014;49.228;11.102;2023-03-23T10:59:33;4.25;;;1.92;;
31382;SDS011;18014;49.228;11.102;2023-03-23T11:01:34;2.88;;;1.75;;
31382;SDS011;18014;49.228;11.102;2023-03-23T11:03:43;2.17;;;1.63;;
31382;SDS011;18014;49.228;11.102;2023-03-23T11:05:49;4.78;;;2.30;;
31382;SDS011;18014;49.228;11.102;2023-03-23T11:07:53;4.85;;;1.83;;
31382;SDS011;18014;49.228;11.102;2023-03-23T11:09:56;4.32;;;2.00;;
31382;SDS011;18014;49.228;11.102;2023-03-23T11:12:15;2.78;;;1.67;;
31382;SDS011;18014;49.228;11.102;2023-03-23T11:14:27;3.35;;;2.35;;
31382;SDS011;18014;49.228;11.102;2023-03-23T11:16:34;2.90;;;1.92;;
31382;SDS011;18014;49.228;11.102;2023-03-23T11:18:42;2.47;;;2.03;;
31382;SDS011;18014;49.228;11.102;2023-03-23T11:20:44;3.33;;;1.80;;
31382;SDS011;18014;49.228;11.102;2023-03-23T11:22:48;5.00;;;2.50;;
31382;SDS011;18014;49.228;11.102;2023-03-23T11:24:52;3.88;;;2.08;;
31382;SDS011;18014;49.228;11.102;2023-03-23T11:26:55;2.75;;;2.08;;
31382;SDS011;18014;49.228;11.102;2023-03-23T11:31:03;2.50;;;2.00;;
31382;SDS011;18014;49.228;11.102;2023-03-23T11:33:07;2.47;;;2.25;;
31382;SDS011;18014;49.228;11.102;2023-03-23T11:35:15;3.17;;;1.83;;
31382;SDS011;18014;49.228;11.102;2023-03-23T11:37:25;3.25;;;1.90;;
31382;SDS011;18014;49.228;11.102;2023-03-23T11:39:30;2.70;;;2.15;;
31382;SDS011;18014;49.228;11.102;2023-03-23T11:41:34;3.63;;;2.10;;
31382;SDS011;18014;49.228;11.102;2023-03-23T11:43:43;2.25;;;1.88;;
31382;SDS011;18014;49.228;11.102;2023-03-23T11:45:47;3.50;;;2.22;;
31382;SDS011;18014;49.228;11.102;2023-03-23T11:50:32;3.38;;;1.98;;
31382;SDS011;18014;49.228;11.102;2023-03-23T11:52:52;3.17;;;2.10;;
31382;SDS011;18014;49.228;11.102;2023-03-23T11:57:52;2.42;;;2.00;;
31382;SDS011;18014;49.228;11.102;2023-03-23T12:10:58;2.47;;;2.00;;
31382;SDS011;18014;49.228;11.102;2023-03-23T12:13:35;2.40;;;1.80;;
31382;SDS011;18014;49.228;11.102;2023-03-23T12:16:00;3.03;;;1.80;;
31382;SDS011;18014;49.228;11.102;2023-03-23T12:23:01;1.77;;;1.60;;
31382;SDS011;18014;49.228;11.102;2023-03-23T12:25:18;2.90;;;1.70;;
31382;SDS011;18014;49.228;11.102;2023-03-23T12:32:27;2.25;;;1.63;;
31382;SDS011;18014;49.228;11.102;2023-03-23T12:43:53;2.80;;;1.88;;
31382;SDS011;18014;49.228;11.102;2023-03-23T12:46:02;2.70;;;1.75;;
31382;SDS011;18014;49.228;11.102;2023-03-23T12:48:16;2.60;;;1.52;;
31382;SDS011;18014;49.228;11.102;2023-03-23T12:50:32;2.75;;;1.42;;
31382;SDS011;18014;49.228;11.102;2023-03-23T12:52:53;2.72;;;1.83;;
31382;SDS011;18014;49.228;11.102;2023-03-23T12:59:46;2.10;;;1.40;;
31382;SDS011;18014;49.228;11.102;2023-03-23T13:01:57;3.15;;;1.70;;
31382;SDS011;18014;49.228;11.102;2023-03-23T13:04:13;1.80;;;1.52;;
31382;SDS011;18014;49.228;11.102;2023-03-23T13:06:35;2.10;;;1.70;;
31382;SDS011;18014;49.228;11.102;2023-03-23T13:08:45;1.40;;;1.30;;
31382;SDS011;18014;49.228;11.102;2023-03-23T13:10:59;4.28;;;1.65;;
31382;SDS011;18014;49.228;11.102;2023-03-23T13:13:11;2.72;;;1.83;;
31382;SDS011;18014;49.228;11.102;2023-03-23T13:17:32;1.67;;;1.40;;
31382;SDS011;18014;49.228;11.102;2023-03-23T13:22:17;2.17;;;1.80;;
31382;SDS011;18014;49.228;11.102;2023-03-23T13:24:49;3.22;;;1.88;;
31382;SDS011;18014;49.228;11.102;2023-03-23T13:26:54;4.35;;;2.22;;
31382;SDS011;18014;49.228;11.102;2023-03-23T13:28:59;3.47;;;2.22;;
31382;SDS011;18014;49.228;11.102;2023-03-23T13:31:12;2.70;;;2.00;;
31382;SDS011;18014;49.228;11.102;2023-03-23T13:33:15;1.80;;;1.70;;
31382;SDS011;18014;49.228;11.102;2023-03-23T13:35:17;1.92;;;1.65;;
31382;SDS011;18014;49.228;11.102;2023-03-23T13:37:22;2.50;;;1.85;;
31382;SDS011;18014;49.228;11.102;2023-03-23T13:41:30;2.58;;;1.73;;
31382;SDS011;18014;49.228;11.102;2023-03-23T13:43:33;2.45;;;1.83;;
31382;SDS011;18014;49.228;11.102;2023-03-23T13:45:46;2.80;;;1.75;;
31382;SDS011;18014;49.228;11.102;2023-03-23T13:47:48;4.07;;;1.85;;
31382;SDS011;18014;49.228;11.102;2023-03-23T13:52:16;2.25;;;1.80;;
31382;SDS011;18014;49.228;11.102;2023-03-23T13:59:06;5.47;;;1.80;;
31382;SDS011;18014;49.228;11.102;2023-03-23T14:01:19;4.32;;;1.98;;